sensor_id;sensor_type;location;lat;lon;timestamp;temperature;humidity
11647;DHT22;5880;52.342;9.662;2022-10-18T00:01:49;20.30;69.70
11647;DHT22;5880;52.342;9.662;2022-10-18T00:04:15;20.30;69.70
11647;DHT22;5880;52.342;9.662;2022-10-18T00:06:40;20.30;69.70
11647;DHT22;5880;52.342;9.662;2022-10-18T00:09:06;20.30;69.70
11647;DHT22;5880;52.342;9.662;2022-10-18T00:11:32;20.30;69.80
11647;DHT22;5880;52.342;9.662;2022-10-18T00:13:57;20.30;69.70
11647;DHT22;5880;52.342;9.662;2022-10-18T00:16:23;20.30;69.70
11647;DHT22;5880;52.342;9.662;2022-10-18T00:18:49;20.30;69.80
11647;DHT22;5880;52.342;9.662;2022-10-18T00:21:18;20.20;69.70
11647;DHT22;5880;52.342;9.662;2022-10-18T00:23:47;20.20;69.70
11647;DHT22;5880;52.342;9.662;2022-10-18T00:26:22;20.20;69.70
11647;DHT22;5880;52.342;9.662;2022-10-18T00:28:55;20.20;69.90
11647;DHT22;5880;52.342;9.662;2022-10-18T00:31:24;20.20;69.70
11647;DHT22;5880;52.342;9.662;2022-10-18T00:33:57;20.20;69.70
11647;DHT22;5880;52.342;9.662;2022-10-18T00:36:27;20.20;69.70
11647;DHT22;5880;52.342;9.662;2022-10-18T00:38:54;20.20;69.70
11647;DHT22;5880;52.342;9.662;2022-10-18T00:41:23;20.20;69.60
11647;DHT22;5880;52.342;9.662;2022-10-18T00:44:00;20.20;69.80
11647;DHT22;5880;52.342;9.662;2022-10-18T00:46:33;20.20;70.00
11647;DHT22;5880;52.342;9.662;2022-10-18T00:49:14;20.20;69.70
11647;DHT22;5880;52.342;9.662;2022-10-18T00:51:55;20.10;70.10
11647;DHT22;5880;52.342;9.662;2022-10-18T00:54:23;20.20;70.10
11647;DHT22;5880;52.342;9.662;2022-10-18T00:56:50;20.10;69.70
11647;DHT22;5880;52.342;9.662;2022-10-18T00:59:17;20.10;69.80
11647;DHT22;5880;52.342;9.662;2022-10-18T01:01:44;20.10;69.80
11647;DHT22;5880;52.342;9.662;2022-10-18T01:04:12;20.10;69.80
11647;DHT22;5880;52.342;9.662;2022-10-18T01:09:48;20.10;70.20
11647;DHT22;5880;52.342;9.662;2022-10-18T01:15:40;20.10;70.30
11647;DHT22;5880;52.342;9.662;2022-10-18T01:32:28;20.00;70.00
11647;DHT22;5880;52.342;9.662;2022-10-18T01:35:02;20.00;70.10
11647;DHT22;5880;52.342;9.662;2022-10-18T01:37:34;20.00;69.80
11647;DHT22;5880;52.342;9.662;2022-10-18T01:40:04;20.00;69.80
11647;DHT22;5880;52.342;9.662;2022-10-18T01:42:31;20.00;69.90
11647;DHT22;5880;52.342;9.662;2022-10-18T01:44:58;20.00;69.80
11647;DHT22;5880;52.342;9.662;2022-10-18T01:47:27;19.90;69.90
11647;DHT22;5880;52.342;9.662;2022-10-18T01:50:01;19.90;69.90
11647;DHT22;5880;52.342;9.662;2022-10-18T01:52:29;19.90;71.00
11647;DHT22;5880;52.342;9.662;2022-10-18T01:54:56;19.90;69.90
11647;DHT22;5880;52.342;9.662;2022-10-18T01:57:40;19.90;70.00
11647;DHT22;5880;52.342;9.662;2022-10-18T02:00:16;19.90;70.40
11647;DHT22;5880;52.342;9.662;2022-10-18T02:06:01;19.80;69.90
11647;DHT22;5880;52.342;9.662;2022-10-18T02:08:33;19.90;70.40
11647;DHT22;5880;52.342;9.662;2022-10-18T02:11:11;19.80;69.70
11647;DHT22;5880;52.342;9.662;2022-10-18T02:13:46;19.80;69.80
11647;DHT22;5880;52.342;9.662;2022-10-18T02:16:20;19.80;70.10
11647;DHT22;5880;52.342;9.662;2022-10-18T02:21:41;19.70;70.30
11647;DHT22;5880;52.342;9.662;2022-10-18T02:24:09;19.70;70.10
11647;DHT22;5880;52.342;9.662;2022-10-18T02:26:37;19.70;70.10
11647;DHT22;5880;52.342;9.662;2022-10-18T02:29:04;19.70;70.10
11647;DHT22;5880;52.342;9.662;2022-10-18T02:31:40;19.70;70.10
11647;DHT22;5880;52.342;9.662;2022-10-18T02:35:30;19.70;70.30
11647;DHT22;5880;52.342;9.662;2022-10-18T02:37:46;19.70;71.60
11647;DHT22;5880;52.342;9.662;2022-10-18T02:40:15;19.70;70.10
11647;DHT22;5880;52.342;9.662;2022-10-18T02:42:49;19.70;70.10
11647;DHT22;5880;52.342;9.662;2022-10-18T02:45:19;19.60;70.30
11647;DHT22;5880;52.342;9.662;2022-10-18T02:47:46;19.60;70.10
11647;DHT22;5880;52.342;9.662;2022-10-18T02:50:12;19.60;70.10
11647;DHT22;5880;52.342;9.662;2022-10-18T02:52:38;19.60;70.10
11647;DHT22;5880;52.342;9.662;2022-10-18T02:55:05;19.60;70.20
11647;DHT22;5880;52.342;9.662;2022-10-18T02:57:32;19.60;70.20
11647;DHT22;5880;52.342;9.662;2022-10-18T02:59:58;19.50;70.10
11647;DHT22;5880;52.342;9.662;2022-10-18T03:02:24;19.50;70.20
11647;DHT22;5880;52.342;9.662;2022-10-18T03:04:49;19.50;70.20
11647;DHT22;5880;52.342;9.662;2022-10-18T03:07:15;19.50;70.20
11647;DHT22;5880;52.342;9.662;2022-10-18T03:09:41;19.50;70.20
11647;DHT22;5880;52.342;9.662;2022-10-18T03:12:07;19.50;70.20
11647;DHT22;5880;52.342;9.662;2022-10-18T03:14:33;19.50;70.30
11647;DHT22;5880;52.342;9.662;2022-10-18T03:16:58;19.40;70.20
11647;DHT22;5880;52.342;9.662;2022-10-18T03:19:24;19.40;70.30
11647;DHT22;5880;52.342;9.662;2022-10-18T03:21:50;19.40;70.30
11647;DHT22;5880;52.342;9.662;2022-10-18T03:24:15;19.40;70.30
11647;DHT22;5880;52.342;9.662;2022-10-18T03:26:41;19.40;70.30
11647;DHT22;5880;52.342;9.662;2022-10-18T03:29:08;19.40;70.30
11647;DHT22;5880;52.342;9.662;2022-10-18T03:31:34;19.40;70.40
11647;DHT22;5880;52.342;9.662;2022-10-18T03:34:00;19.40;70.40
11647;DHT22;5880;52.342;9.662;2022-10-18T03:36:26;19.30;70.40
11647;DHT22;5880;52.342;9.662;2022-10-18T03:38:52;19.30;70.40
11647;DHT22;5880;52.342;9.662;2022-10-18T03:41:17;19.40;70.50
11647;DHT22;5880;52.342;9.662;2022-10-18T03:43:45;19.30;70.50
11647;DHT22;5880;52.342;9.662;2022-10-18T03:46:11;19.30;70.50
11647;DHT22;5880;52.342;9.662;2022-10-18T03:48:37;19.30;70.50
11647;DHT22;5880;52.342;9.662;2022-10-18T03:51:02;19.30;71.00
11647;DHT22;5880;52.342;9.662;2022-10-18T03:53:28;19.30;70.50
11647;DHT22;5880;52.342;9.662;2022-10-18T03:55:55;19.30;70.60
11647;DHT22;5880;52.342;9.662;2022-10-18T03:58:21;19.30;70.60
11647;DHT22;5880;52.342;9.662;2022-10-18T04:00:51;19.30;70.60
11647;DHT22;5880;52.342;9.662;2022-10-18T04:03:19;19.30;70.80
11647;DHT22;5880;52.342;9.662;2022-10-18T04:05:46;19.30;70.60
11647;DHT22;5880;52.342;9.662;2022-10-18T04:08:12;19.30;70.60
11647;DHT22;5880;52.342;9.662;2022-10-18T04:10:39;19.20;70.50
11647;DHT22;5880;52.342;9.662;2022-10-18T04:13:06;19.30;70.60
11647;DHT22;5880;52.342;9.662;2022-10-18T04:15:32;19.30;70.70
11647;DHT22;5880;52.342;9.662;2022-10-18T04:17:59;19.30;70.70
11647;DHT22;5880;52.342;9.662;2022-10-18T04:20:25;19.20;70.70
11647;DHT22;5880;52.342;9.662;2022-10-18T04:22:51;19.20;70.70
11647;DHT22;5880;52.342;9.662;2022-10-18T04:25:19;19.20;70.80
11647;DHT22;5880;52.342;9.662;2022-10-18T04:27:45;19.20;70.80
11647;DHT22;5880;52.342;9.662;2022-10-18T04:30:11;19.20;70.80
11647;DHT22;5880;52.342;9.662;2022-10-18T04:32:37;19.20;70.70
11647;DHT22;5880;52.342;9.662;2022-10-18T04:35:04;19.20;70.70
11647;DHT22;5880;52.342;9.662;2022-10-18T04:37:31;19.20;70.80
11647;DHT22;5880;52.342;9.662;2022-10-18T04:39:57;19.20;70.70
11647;DHT22;5880;52.342;9.662;2022-10-18T04:42:22;19.20;71.20
11647;DHT22;5880;52.342;9.662;2022-10-18T04:44:49;19.10;70.60
11647;DHT22;5880;52.342;9.662;2022-10-18T04:47:15;19.20;70.60
11647;DHT22;5880;52.342;9.662;2022-10-18T04:49:41;19.20;70.60
11647;DHT22;5880;52.342;9.662;2022-10-18T04:52:07;19.10;70.60
11647;DHT22;5880;52.342;9.662;2022-10-18T04:54:33;19.10;70.60
11647;DHT22;5880;52.342;9.662;2022-10-18T04:56:59;19.10;70.70
11647;DHT22;5880;52.342;9.662;2022-10-18T04:59:25;19.00;70.50
11647;DHT22;5880;52.342;9.662;2022-10-18T05:01:50;19.00;70.50
11647;DHT22;5880;52.342;9.662;2022-10-18T05:04:16;19.10;70.60
11647;DHT22;5880;52.342;9.662;2022-10-18T05:06:42;19.00;70.60
11647;DHT22;5880;52.342;9.662;2022-10-18T05:09:07;19.10;70.70
11647;DHT22;5880;52.342;9.662;2022-10-18T05:11:33;19.00;70.70
11647;DHT22;5880;52.342;9.662;2022-10-18T05:13:59;19.00;70.70
11647;DHT22;5880;52.342;9.662;2022-10-18T05:16:24;19.00;70.80
11647;DHT22;5880;52.342;9.662;2022-10-18T05:18:50;19.00;70.80
11647;DHT22;5880;52.342;9.662;2022-10-18T05:21:16;19.00;70.80
11647;DHT22;5880;52.342;9.662;2022-10-18T05:23:41;18.90;70.80
11647;DHT22;5880;52.342;9.662;2022-10-18T05:26:07;18.90;70.80
11647;DHT22;5880;52.342;9.662;2022-10-18T05:28:34;18.90;70.80
11647;DHT22;5880;52.342;9.662;2022-10-18T05:31:01;18.90;70.90
11647;DHT22;5880;52.342;9.662;2022-10-18T05:33:31;18.90;70.90
11647;DHT22;5880;52.342;9.662;2022-10-18T05:35:57;18.90;70.90
11647;DHT22;5880;52.342;9.662;2022-10-18T05:38:24;18.90;70.90
11647;DHT22;5880;52.342;9.662;2022-10-18T05:40:50;18.90;70.90
11647;DHT22;5880;52.342;9.662;2022-10-18T05:43:16;18.80;70.80
11647;DHT22;5880;52.342;9.662;2022-10-18T05:45:49;18.90;71.00
11647;DHT22;5880;52.342;9.662;2022-10-18T05:48:15;18.90;71.30
11647;DHT22;5880;52.342;9.662;2022-10-18T05:50:42;18.90;71.10
11647;DHT22;5880;52.342;9.662;2022-10-18T05:53:08;18.80;71.00
11647;DHT22;5880;52.342;9.662;2022-10-18T05:55:34;18.80;71.00
11647;DHT22;5880;52.342;9.662;2022-10-18T05:58:00;18.80;71.00
11647;DHT22;5880;52.342;9.662;2022-10-18T06:00:27;18.80;71.10
11647;DHT22;5880;52.342;9.662;2022-10-18T06:02:52;18.80;71.10
11647;DHT22;5880;52.342;9.662;2022-10-18T06:05:18;18.80;71.20
11647;DHT22;5880;52.342;9.662;2022-10-18T06:07:44;18.80;71.20
11647;DHT22;5880;52.342;9.662;2022-10-18T06:10:09;18.80;71.10
11647;DHT22;5880;52.342;9.662;2022-10-18T06:12:35;18.80;71.20
11647;DHT22;5880;52.342;9.662;2022-10-18T06:15:01;18.80;71.10
11647;DHT22;5880;52.342;9.662;2022-10-18T06:17:26;18.80;71.00
11647;DHT22;5880;52.342;9.662;2022-10-18T06:19:52;18.80;71.00
11647;DHT22;5880;52.342;9.662;2022-10-18T06:22:18;18.80;71.00
11647;DHT22;5880;52.342;9.662;2022-10-18T06:24:43;18.80;71.00
11647;DHT22;5880;52.342;9.662;2022-10-18T06:27:09;18.80;71.10
11647;DHT22;5880;52.342;9.662;2022-10-18T06:29:36;18.80;71.10
11647;DHT22;5880;52.342;9.662;2022-10-18T06:32:03;18.80;71.20
11647;DHT22;5880;52.342;9.662;2022-10-18T06:34:31;18.80;71.20
11647;DHT22;5880;52.342;9.662;2022-10-18T06:36:57;18.80;71.20
11647;DHT22;5880;52.342;9.662;2022-10-18T06:39:23;18.80;71.30
11647;DHT22;5880;52.342;9.662;2022-10-18T06:41:49;18.80;71.30
11647;DHT22;5880;52.342;9.662;2022-10-18T06:44:15;18.80;71.30
11647;DHT22;5880;52.342;9.662;2022-10-18T06:46:45;18.80;71.30
11647;DHT22;5880;52.342;9.662;2022-10-18T06:49:12;18.80;71.40
11647;DHT22;5880;52.342;9.662;2022-10-18T06:51:40;18.80;71.40
11647;DHT22;5880;52.342;9.662;2022-10-18T06:54:06;18.80;71.50
11647;DHT22;5880;52.342;9.662;2022-10-18T06:56:33;18.80;71.50
11647;DHT22;5880;52.342;9.662;2022-10-18T06:58:59;18.80;71.60
11647;DHT22;5880;52.342;9.662;2022-10-18T07:01:25;18.80;71.50
11647;DHT22;5880;52.342;9.662;2022-10-18T07:03:53;18.80;71.60
11647;DHT22;5880;52.342;9.662;2022-10-18T07:06:19;18.80;71.60
11647;DHT22;5880;52.342;9.662;2022-10-18T07:08:48;18.80;71.60
11647;DHT22;5880;52.342;9.662;2022-10-18T07:11:20;18.80;71.70
11647;DHT22;5880;52.342;9.662;2022-10-18T07:13:51;18.80;72.00
11647;DHT22;5880;52.342;9.662;2022-10-18T07:16:25;18.90;71.90
11647;DHT22;5880;52.342;9.662;2022-10-18T07:18:51;18.90;71.90
11647;DHT22;5880;52.342;9.662;2022-10-18T07:21:19;19.00;71.90
11647;DHT22;5880;52.342;9.662;2022-10-18T07:23:46;18.90;72.00
11647;DHT22;5880;52.342;9.662;2022-10-18T07:26:15;18.90;71.90
11647;DHT22;5880;52.342;9.662;2022-10-18T07:28:46;18.90;72.10
11647;DHT22;5880;52.342;9.662;2022-10-18T07:31:14;18.90;72.10
11647;DHT22;5880;52.342;9.662;2022-10-18T07:33:40;19.00;72.10
11647;DHT22;5880;52.342;9.662;2022-10-18T07:36:09;19.00;72.20
11647;DHT22;5880;52.342;9.662;2022-10-18T07:38:35;19.00;73.00
11647;DHT22;5880;52.342;9.662;2022-10-18T07:41:03;19.00;72.30
11647;DHT22;5880;52.342;9.662;2022-10-18T07:43:31;19.10;72.50
11647;DHT22;5880;52.342;9.662;2022-10-18T07:46:00;19.20;72.40
11647;DHT22;5880;52.342;9.662;2022-10-18T07:48:28;19.10;72.50
11647;DHT22;5880;52.342;9.662;2022-10-18T07:50:57;19.10;72.50
11647;DHT22;5880;52.342;9.662;2022-10-18T07:53:25;19.20;72.60
11647;DHT22;5880;52.342;9.662;2022-10-18T07:55:56;19.20;73.30
11647;DHT22;5880;52.342;9.662;2022-10-18T07:58:26;19.20;72.70
11647;DHT22;5880;52.342;9.662;2022-10-18T08:00:52;19.20;72.50
11647;DHT22;5880;52.342;9.662;2022-10-18T08:03:18;19.30;72.60
11647;DHT22;5880;52.342;9.662;2022-10-18T08:05:53;19.30;72.80
11647;DHT22;5880;52.342;9.662;2022-10-18T08:08:21;19.30;73.30
11647;DHT22;5880;52.342;9.662;2022-10-18T08:10:47;19.30;73.20
11647;DHT22;5880;52.342;9.662;2022-10-18T08:13:14;19.40;73.30
11647;DHT22;5880;52.342;9.662;2022-10-18T08:15:40;19.50;73.50
11647;DHT22;5880;52.342;9.662;2022-10-18T08:18:05;19.50;73.40
11647;DHT22;5880;52.342;9.662;2022-10-18T08:20:31;19.60;73.30
11647;DHT22;5880;52.342;9.662;2022-10-18T08:22:58;19.60;73.30
11647;DHT22;5880;52.342;9.662;2022-10-18T08:25:24;19.70;73.30
11647;DHT22;5880;52.342;9.662;2022-10-18T08:27:50;19.70;73.30
11647;DHT22;5880;52.342;9.662;2022-10-18T08:30:15;19.70;73.30
11647;DHT22;5880;52.342;9.662;2022-10-18T08:32:42;19.80;73.20
11647;DHT22;5880;52.342;9.662;2022-10-18T08:35:07;19.80;72.80
11647;DHT22;5880;52.342;9.662;2022-10-18T08:37:33;19.90;72.70
11647;DHT22;5880;52.342;9.662;2022-10-18T08:39:59;19.90;72.60
11647;DHT22;5880;52.342;9.662;2022-10-18T08:42:49;19.90;72.50
11647;DHT22;5880;52.342;9.662;2022-10-18T08:45:24;20.00;72.60
11647;DHT22;5880;52.342;9.662;2022-10-18T08:47:53;20.00;72.20
11647;DHT22;5880;52.342;9.662;2022-10-18T08:50:26;20.00;72.20
11647;DHT22;5880;52.342;9.662;2022-10-18T08:53:26;20.00;72.20
11647;DHT22;5880;52.342;9.662;2022-10-18T08:56:11;20.00;73.00
11647;DHT22;5880;52.342;9.662;2022-10-18T08:58:43;20.00;72.40
11647;DHT22;5880;52.342;9.662;2022-10-18T09:10:13;20.00;72.10
11647;DHT22;5880;52.342;9.662;2022-10-18T09:16:10;20.00;72.00
11647;DHT22;5880;52.342;9.662;2022-10-18T09:18:54;20.00;71.90
11647;DHT22;5880;52.342;9.662;2022-10-18T09:21:50;19.90;71.80
11647;DHT22;5880;52.342;9.662;2022-10-18T09:24:32;19.90;72.00
11647;DHT22;5880;52.342;9.662;2022-10-18T09:27:17;19.90;71.90
11647;DHT22;5880;52.342;9.662;2022-10-18T09:29:54;19.90;71.80
11647;DHT22;5880;52.342;9.662;2022-10-18T09:35:49;19.80;72.00
11647;DHT22;5880;52.342;9.662;2022-10-18T09:38:23;19.90;72.10
11647;DHT22;5880;52.342;9.662;2022-10-18T09:41:03;19.80;71.80
11647;DHT22;5880;52.342;9.662;2022-10-18T09:43:44;19.80;72.10
11647;DHT22;5880;52.342;9.662;2022-10-18T09:46:14;19.90;72.20
11647;DHT22;5880;52.342;9.662;2022-10-18T09:48:54;19.80;72.10
11647;DHT22;5880;52.342;9.662;2022-10-18T09:51:29;19.80;72.20
11647;DHT22;5880;52.342;9.662;2022-10-18T09:57:05;19.90;72.40
11647;DHT22;5880;52.342;9.662;2022-10-18T09:59:45;19.90;72.40
11647;DHT22;5880;52.342;9.662;2022-10-18T10:02:14;20.00;72.30
11647;DHT22;5880;52.342;9.662;2022-10-18T10:04:42;20.00;72.30
11647;DHT22;5880;52.342;9.662;2022-10-18T10:07:13;20.00;72.20
11647;DHT22;5880;52.342;9.662;2022-10-18T10:09:54;20.00;72.00
11647;DHT22;5880;52.342;9.662;2022-10-18T10:12:40;20.00;71.90
11647;DHT22;5880;52.342;9.662;2022-10-18T10:18:19;20.00;71.70
11647;DHT22;5880;52.342;9.662;2022-10-18T10:20:58;20.10;71.70
11647;DHT22;5880;52.342;9.662;2022-10-18T10:23:29;20.00;71.50
11647;DHT22;5880;52.342;9.662;2022-10-18T10:26:28;20.00;71.60
11647;DHT22;5880;52.342;9.662;2022-10-18T10:28:57;20.10;71.60
11647;DHT22;5880;52.342;9.662;2022-10-18T10:31:30;20.00;71.50
11647;DHT22;5880;52.342;9.662;2022-10-18T10:34:16;20.00;71.50
11647;DHT22;5880;52.342;9.662;2022-10-18T10:36:49;20.10;71.40
11647;DHT22;5880;52.342;9.662;2022-10-18T10:39:18;20.10;71.50
11647;DHT22;5880;52.342;9.662;2022-10-18T10:41:53;20.10;71.70
11647;DHT22;5880;52.342;9.662;2022-10-18T10:44:29;20.10;71.70
11647;DHT22;5880;52.342;9.662;2022-10-18T10:46:58;20.10;71.40
11647;DHT22;5880;52.342;9.662;2022-10-18T10:49:28;20.20;71.70
11647;DHT22;5880;52.342;9.662;2022-10-18T10:52:16;20.20;71.40
11647;DHT22;5880;52.342;9.662;2022-10-18T10:54:45;20.30;70.90
11647;DHT22;5880;52.342;9.662;2022-10-18T11:04:51;20.40;70.80
11647;DHT22;5880;52.342;9.662;2022-10-18T11:07:39;20.50;70.40
11647;DHT22;5880;52.342;9.662;2022-10-18T11:12:41;20.50;70.10
11647;DHT22;5880;52.342;9.662;2022-10-18T11:17:58;20.60;69.90
11647;DHT22;5880;52.342;9.662;2022-10-18T11:20:52;20.50;69.30
11647;DHT22;5880;52.342;9.662;2022-10-18T11:23:31;20.50;69.50
11647;DHT22;5880;52.342;9.662;2022-10-18T11:26:17;20.50;69.70
11647;DHT22;5880;52.342;9.662;2022-10-18T11:29:10;20.50;69.70
11647;DHT22;5880;52.342;9.662;2022-10-18T11:43:49;20.70;70.10
11647;DHT22;5880;52.342;9.662;2022-10-18T11:46:59;20.70;69.20
11647;DHT22;5880;52.342;9.662;2022-10-18T11:50:12;20.70;69.40
11647;DHT22;5880;52.342;9.662;2022-10-18T11:56:12;20.80;68.70
11647;DHT22;5880;52.342;9.662;2022-10-18T11:59:06;20.80;68.40
11647;DHT22;5880;52.342;9.662;2022-10-18T12:05:00;20.80;68.40
11647;DHT22;5880;52.342;9.662;2022-10-18T12:07:33;20.90;69.10
11647;DHT22;5880;52.342;9.662;2022-10-18T12:10:06;21.00;68.50
11647;DHT22;5880;52.342;9.662;2022-10-18T12:12:44;21.00;68.50
11647;DHT22;5880;52.342;9.662;2022-10-18T12:15:22;21.00;67.70
11647;DHT22;5880;52.342;9.662;2022-10-18T12:17:52;21.00;67.60
11647;DHT22;5880;52.342;9.662;2022-10-18T12:20:30;21.00;67.90
11647;DHT22;5880;52.342;9.662;2022-10-18T12:23:02;21.10;67.50
11647;DHT22;5880;52.342;9.662;2022-10-18T12:25:43;21.00;67.00
11647;DHT22;5880;52.342;9.662;2022-10-18T12:31:23;21.10;66.00
11647;DHT22;5880;52.342;9.662;2022-10-18T12:34:00;21.10;66.80
11647;DHT22;5880;52.342;9.662;2022-10-18T12:39:45;21.10;66.60
11647;DHT22;5880;52.342;9.662;2022-10-18T12:42:22;21.10;66.60
11647;DHT22;5880;52.342;9.662;2022-10-18T12:45:15;21.10;66.30
11647;DHT22;5880;52.342;9.662;2022-10-18T12:47:45;21.20;65.80
11647;DHT22;5880;52.342;9.662;2022-10-18T12:50:33;21.20;66.70
11647;DHT22;5880;52.342;9.662;2022-10-18T12:53:17;21.20;65.30
11647;DHT22;5880;52.342;9.662;2022-10-18T12:55:47;21.30;65.30
11647;DHT22;5880;52.342;9.662;2022-10-18T12:58:24;21.30;65.90
11647;DHT22;5880;52.342;9.662;2022-10-18T13:00:56;21.30;65.20
11647;DHT22;5880;52.342;9.662;2022-10-18T13:03:49;21.30;65.30
11647;DHT22;5880;52.342;9.662;2022-10-18T13:06:18;21.40;65.20
11647;DHT22;5880;52.342;9.662;2022-10-18T13:08:44;21.40;65.10
11647;DHT22;5880;52.342;9.662;2022-10-18T13:11:28;21.40;64.90
11647;DHT22;5880;52.342;9.662;2022-10-18T13:14:18;21.40;63.10
11647;DHT22;5880;52.342;9.662;2022-10-18T13:17:00;21.40;63.20
11647;DHT22;5880;52.342;9.662;2022-10-18T13:19:45;21.30;63.30
11647;DHT22;5880;52.342;9.662;2022-10-18T13:30:54;21.30;62.50
11647;DHT22;5880;52.342;9.662;2022-10-18T13:33:40;21.20;63.00
11647;DHT22;5880;52.342;9.662;2022-10-18T13:44:26;21.10;60.80
11647;DHT22;5880;52.342;9.662;2022-10-18T13:52:51;21.10;61.60
11647;DHT22;5880;52.342;9.662;2022-10-18T14:01:19;21.10;62.60
11647;DHT22;5880;52.342;9.662;2022-10-18T14:07:05;21.10;60.80
11647;DHT22;5880;52.342;9.662;2022-10-18T14:09:47;21.10;61.40
11647;DHT22;5880;52.342;9.662;2022-10-18T14:12:37;21.10;60.10
11647;DHT22;5880;52.342;9.662;2022-10-18T14:15:18;21.10;59.80
11647;DHT22;5880;52.342;9.662;2022-10-18T14:18:17;21.10;59.80
11647;DHT22;5880;52.342;9.662;2022-10-18T14:20:54;21.10;59.70
11647;DHT22;5880;52.342;9.662;2022-10-18T14:23:33;21.10;60.30
11647;DHT22;5880;52.342;9.662;2022-10-18T14:26:13;21.00;60.10
11647;DHT22;5880;52.342;9.662;2022-10-18T14:28:40;21.10;60.60
11647;DHT22;5880;52.342;9.662;2022-10-18T14:31:11;21.00;60.80
11647;DHT22;5880;52.342;9.662;2022-10-18T14:33:44;21.10;59.60
11647;DHT22;5880;52.342;9.662;2022-10-18T14:36:23;21.00;59.10
11647;DHT22;5880;52.342;9.662;2022-10-18T14:38:50;21.10;58.80
11647;DHT22;5880;52.342;9.662;2022-10-18T14:41:29;21.00;60.00
11647;DHT22;5880;52.342;9.662;2022-10-18T14:47:00;21.00;58.40
11647;DHT22;5880;52.342;9.662;2022-10-18T14:49:27;21.00;59.00
11647;DHT22;5880;52.342;9.662;2022-10-18T14:51:58;21.00;59.60
11647;DHT22;5880;52.342;9.662;2022-10-18T14:54:30;21.00;59.10
11647;DHT22;5880;52.342;9.662;2022-10-18T14:56:58;21.00;59.20
11647;DHT22;5880;52.342;9.662;2022-10-18T14:59:27;21.00;59.40
11647;DHT22;5880;52.342;9.662;2022-10-18T15:02:34;21.00;58.90
11647;DHT22;5880;52.342;9.662;2022-10-18T15:05:13;21.00;58.40
11647;DHT22;5880;52.342;9.662;2022-10-18T15:07:45;20.90;57.90
11647;DHT22;5880;52.342;9.662;2022-10-18T15:10:18;20.90;58.10
11647;DHT22;5880;52.342;9.662;2022-10-18T15:12:50;20.80;57.10
11647;DHT22;5880;52.342;9.662;2022-10-18T15:15:21;20.70;58.10
11647;DHT22;5880;52.342;9.662;2022-10-18T15:17:51;20.70;57.60
11647;DHT22;5880;52.342;9.662;2022-10-18T15:20:28;20.70;58.70
11647;DHT22;5880;52.342;9.662;2022-10-18T15:23:27;20.60;57.20
11647;DHT22;5880;52.342;9.662;2022-10-18T15:26:08;20.60;55.00
11647;DHT22;5880;52.342;9.662;2022-10-18T15:28:41;20.60;56.40
11647;DHT22;5880;52.342;9.662;2022-10-18T15:31:31;20.50;56.70
11647;DHT22;5880;52.342;9.662;2022-10-18T15:34:25;20.40;56.30
11647;DHT22;5880;52.342;9.662;2022-10-18T15:36:53;20.40;56.50
11647;DHT22;5880;52.342;9.662;2022-10-18T15:39:23;20.40;57.10
11647;DHT22;5880;52.342;9.662;2022-10-18T15:41:56;20.30;57.20
11647;DHT22;5880;52.342;9.662;2022-10-18T15:47:15;20.20;57.20
11647;DHT22;5880;52.342;9.662;2022-10-18T15:49:47;20.20;56.40
11647;DHT22;5880;52.342;9.662;2022-10-18T15:54:46;20.00;57.70
11647;DHT22;5880;52.342;9.662;2022-10-18T15:57:13;20.00;57.70
11647;DHT22;5880;52.342;9.662;2022-10-18T15:59:52;19.90;57.70
11647;DHT22;5880;52.342;9.662;2022-10-18T16:02:22;19.90;57.00
11647;DHT22;5880;52.342;9.662;2022-10-18T16:04:48;19.80;57.80
11647;DHT22;5880;52.342;9.662;2022-10-18T16:07:14;19.80;57.80
11647;DHT22;5880;52.342;9.662;2022-10-18T16:09:39;19.70;57.90
11647;DHT22;5880;52.342;9.662;2022-10-18T16:12:05;19.70;57.90
11647;DHT22;5880;52.342;9.662;2022-10-18T16:14:31;19.60;58.80
11647;DHT22;5880;52.342;9.662;2022-10-18T16:17:02;19.60;58.00
11647;DHT22;5880;52.342;9.662;2022-10-18T16:19:31;19.50;57.60
11647;DHT22;5880;52.342;9.662;2022-10-18T16:21:58;19.50;58.10
11647;DHT22;5880;52.342;9.662;2022-10-18T16:24:24;19.40;57.90
11647;DHT22;5880;52.342;9.662;2022-10-18T16:26:50;19.40;58.00
11647;DHT22;5880;52.342;9.662;2022-10-18T16:29:21;19.30;58.30
11647;DHT22;5880;52.342;9.662;2022-10-18T16:31:52;19.30;57.60
11647;DHT22;5880;52.342;9.662;2022-10-18T16:34:22;19.20;58.10
11647;DHT22;5880;52.342;9.662;2022-10-18T16:36:50;19.20;58.10
11647;DHT22;5880;52.342;9.662;2022-10-18T16:39:18;19.10;58.20
11647;DHT22;5880;52.342;9.662;2022-10-18T16:41:46;19.10;58.40
11647;DHT22;5880;52.342;9.662;2022-10-18T16:44:12;19.00;58.50
11647;DHT22;5880;52.342;9.662;2022-10-18T16:46:38;19.00;59.30
11647;DHT22;5880;52.342;9.662;2022-10-18T16:49:05;18.90;58.60
11647;DHT22;5880;52.342;9.662;2022-10-18T16:51:31;18.90;58.80
11647;DHT22;5880;52.342;9.662;2022-10-18T16:53:57;18.80;58.80
11647;DHT22;5880;52.342;9.662;2022-10-18T16:56:26;18.80;59.00
11647;DHT22;5880;52.342;9.662;2022-10-18T16:58:55;18.70;59.10
11647;DHT22;5880;52.342;9.662;2022-10-18T17:01:22;18.70;59.20
11647;DHT22;5880;52.342;9.662;2022-10-18T17:03:49;18.70;59.30
11647;DHT22;5880;52.342;9.662;2022-10-18T17:06:26;18.60;59.30
11647;DHT22;5880;52.342;9.662;2022-10-18T17:08:54;18.60;60.10
11647;DHT22;5880;52.342;9.662;2022-10-18T17:11:23;18.60;59.50
11647;DHT22;5880;52.342;9.662;2022-10-18T17:13:51;18.50;60.20
11647;DHT22;5880;52.342;9.662;2022-10-18T17:16:25;18.60;59.60
11647;DHT22;5880;52.342;9.662;2022-10-18T17:18:53;18.50;59.50
11647;DHT22;5880;52.342;9.662;2022-10-18T17:21:20;18.40;59.50
11647;DHT22;5880;52.342;9.662;2022-10-18T17:23:46;18.40;59.60
11647;DHT22;5880;52.342;9.662;2022-10-18T17:26:19;18.30;59.70
11647;DHT22;5880;52.342;9.662;2022-10-18T17:28:49;18.30;59.80
11647;DHT22;5880;52.342;9.662;2022-10-18T17:31:19;18.30;59.90
11647;DHT22;5880;52.342;9.662;2022-10-18T17:33:46;18.20;59.80
11647;DHT22;5880;52.342;9.662;2022-10-18T17:36:12;18.20;60.00
11647;DHT22;5880;52.342;9.662;2022-10-18T17:38:38;18.10;60.00
11647;DHT22;5880;52.342;9.662;2022-10-18T17:41:08;18.10;59.90
11647;DHT22;5880;52.342;9.662;2022-10-18T17:43:36;18.10;59.80
11647;DHT22;5880;52.342;9.662;2022-10-18T17:46:02;18.00;59.90
11647;DHT22;5880;52.342;9.662;2022-10-18T17:48:29;17.90;59.80
11647;DHT22;5880;52.342;9.662;2022-10-18T17:50:54;17.90;59.80
11647;DHT22;5880;52.342;9.662;2022-10-18T17:53:21;17.80;59.60
11647;DHT22;5880;52.342;9.662;2022-10-18T17:56:00;17.80;59.70
11647;DHT22;5880;52.342;9.662;2022-10-18T17:58:27;17.70;59.50
11647;DHT22;5880;52.342;9.662;2022-10-18T18:00:53;17.70;59.70
11647;DHT22;5880;52.342;9.662;2022-10-18T18:03:19;17.60;59.80
11647;DHT22;5880;52.342;9.662;2022-10-18T18:05:45;17.60;59.90
11647;DHT22;5880;52.342;9.662;2022-10-18T18:08:12;17.50;60.00
11647;DHT22;5880;52.342;9.662;2022-10-18T18:10:38;17.50;60.00
11647;DHT22;5880;52.342;9.662;2022-10-18T18:13:04;17.40;60.00
11647;DHT22;5880;52.342;9.662;2022-10-18T18:15:30;17.40;60.00
11647;DHT22;5880;52.342;9.662;2022-10-18T18:17:55;17.40;60.10